Station: Deniliquin  

  Atmospheric Gas Attenuation - ITU Rec 676-11   ----------------- dB/100km -----------------
Date Time Temp RH % AH g/m3 Dew Point Wind Direction Speed kph Gust kph Barometer mB Rainfall Since 9am 24GHz 47GHz 76GHz 122GHz 134GHz 241GHz
08/05 12:30 16.8 59 8.43 8.8 32 43 1024.1 0 19.1 25.2 38.1 99.9 93.4 321.2
08/05 12:20 16.2 60 8.27 8.4 28 35 1024.1 0 18.8 25.1 37.8 99.0 92.1 316.5
08/05 12:10 16.8 60 8.58 9 32 35 1024.2 0 19.4 25.4 38.7 101.5 95.3 327.9
08/05 12:00 16.9 60 8.63 9.1 32 39 1024.2 0 19.5 25.5 38.9 101.9 95.8 329.7
08/05 11:50 16.4 61 8.51 8.9 28 32 1024.1 0 19.3 25.4 38.6 101.2 94.9 326.4
08/05 11:40 16.4 61 8.51 8.9 30 33 1024.3 0 19.3 25.4 38.7 101.3 94.9 326.4
08/05 11:30 15.9 62 8.4 8.6 32 41 1024.5 0 19.1 25.4 38.5 100.8 94.1 323.6
08/05 11:20 16.1 64 8.77 9.3 32 39 1024.4 0 19.8 25.9 39.8 104.4 98.6 339.5
08/05 11:10 16.1 63 8.64 9.1 24 32 1024.4 0 19.6 25.7 39.3 103.0 96.9 333.6
08/05 11:00 15.8 66 8.88 9.5 30 41 1024.5 0 20.1 26.2 40.4 105.9 100.4 345.8
08/05 10:50 16.2 65 8.96 9.6 32 37 1024.4 0 20.2 26.2 40.5 106.3 101.0 347.7
08/05 10:40 16.3 65 9.02 9.7 30 37 1024.5 0 20.3 26.3 40.7 106.8 101.6 350.0
08/05 10:30 15.8 67 9.02 9.7 32 39 1024.8 0 20.4 26.4 41.0 107.5 102.3 352.3
08/05 10:20 15.6 67 8.91 9.5 30 35 1024.9 0 20.1 26.3 40.6 106.6 101.1 348.2
08/05 10:10 15.3 68 8.88 9.4 32 37 1024.9 0 20.1 26.3 40.7 106.7 101.1 348.1
08/05 10:00 15.1 71 9.16 9.9 30 39 1024.8 0 20.7 26.9 41.9 109.9 105.1 362.0
08/05 09:50 14.6 72 9.01 9.6 32 35 1024.8 0 20.4 26.8 41.6 109.0 103.8 357.3
08/05 09:40 14.1 74 8.98 9.5 30 33 1024.8 0 20.4 26.9 41.7 109.4 104.0 358.1
08/05 09:30 13.7 77 9.12 9.7 28 35 1025 0 20.7 27.2 42.5 111.5 106.5 366.7
08/05 09:20 13.5 78 9.12 9.7 28 35 1024.9 0 20.7 27.3 42.6 111.8 106.8 367.6
08/05 09:10 12.9 79 8.9 9.4 32 39 1024.8 0 20.3 27.1 42.0 110.2 104.6 359.8
08/05 09:00 13 79 8.96 9.4 26 35 1024.7 0 20.4 27.2 42.2 110.7 105.2 362.2
08/05 08:50 12.6 81 8.96 9.4 24 28 1024.5 0 20.4 27.3 42.4 111.2 105.8 364.0
08/05 08:40 12.1 82 8.79 9.1 28 32 1024.4 0 20.1 27.1 42.0 110.0 104.1 358.1
08/05 08:30 11.9 83 8.79 9.1 20 30 1024.5 0 20.1 27.2 42.1 110.3 104.4 359.1
08/05 08:20 11.7 84 8.79 9.1 19 24 1024.4 0 20.1 27.3 42.2 110.6 104.7 360.0
08/05 08:10 11.2 85 8.62 8.8 20 24 1024.3 0 19.7 27.1 41.7 109.4 103.0 354.0
08/05 08:00 10.8 86 8.5 8.6 17 24 1024.4 0 19.5 27.1 41.4 108.6 101.9 350.1
08/05 07:50 10.4 88 8.48 8.5 17 20 1024.3 0 19.5 27.1 41.6 108.9 102.1 350.9
08/05 07:40 10.3 88 8.43 8.4 17 20 1024.2 0 19.4 27.1 41.4 108.5 101.5 348.9
08/05 07:30 10.1 89 8.42 8.4 17 22 1024.3 0 19.4 27.1 41.5 108.7 101.7 349.3
08/05 07:20 9.8 89 8.26 8.1 19 20 1024.1 0 19.0 26.9 40.9 107.3 99.8 342.8
08/05 07:10 9.7 89 8.21 8 17 19 1024 0 18.9 26.9 40.8 106.8 99.2 340.8
08/05 07:00 9.6 89 8.16 7.9 20 24 1024.1 0 18.8 26.8 40.6 106.4 98.7 338.8
08/05 06:50 9.6 88 8.06 7.7 20 22 1024 0 18.6 26.7 40.2 105.3 97.3 333.9
08/05 06:40 9.8 87 8.07 7.7 22 26 1024 0 18.6 26.6 40.1 105.1 97.2 333.6
08/05 06:30 10 86 8.08 7.8 22 28 1024.1 0 18.6 26.6 40.1 105.0 97.1 333.2
08/05 06:20 9.8 87 8.07 7.7 22 24 1024.1 0 18.6 26.6 40.1 105.1 97.2 333.6
08/05 06:10 9.4 87 7.87 7.3 19 20 1024.1 0 18.2 26.4 39.5 103.4 94.9 325.6
08/05 06:00 9.2 88 7.86 7.3 20 28 1024 0 18.2 26.4 39.6 103.6 95.0 326.0
08/05 05:50 9 87 7.67 7 17 20 1023.7 0 17.8 26.2 38.8 101.7 92.6 317.6
08/05 05:40 9 87 7.67 7 17 20 1023.6 0 17.8 26.2 38.8 101.7 92.6 317.5
08/05 05:30 8.9 87 7.62 6.9 17 22 1023.6 0 17.7 26.1 38.7 101.3 92.1 315.5
08/05 05:20 8.8 87 7.58 6.8 15 17 1023.3 0 17.6 26.1 38.5 100.9 91.6 313.9
08/05 05:10 8.8 87 7.58 6.8 19 20 1023.3 0 17.6 26.1 38.5 100.9 91.6 313.9
08/05 05:00 8.6 86 7.39 6.4 15 20 1023.4 0 17.2 25.8 37.9 99.1 89.3 305.7
08/05 04:50 8.4 87 7.38 6.4 15 17 1023.1 0 17.2 25.8 37.9 99.2 89.3 305.9
08/05 04:40 8.6 86 7.39 6.4 17 20 1022.9 0 17.2 25.8 37.8 99.0 89.2 305.5
08/05 04:30 8.6 85 7.31 6.2 20 26 1023 0 17.1 25.7 37.5 98.1 88.1 301.7
08/05 04:20 8.7 85 7.35 6.3 22 26 1022.9 0 17.1 25.7 37.6 98.4 88.6 303.2
08/05 04:10 8.7 84 7.27 6.2 20 24 1022.8 0 17.0 25.6 37.3 97.6 87.5 299.4
08/05 04:00 8.7 84 7.27 6.2 20 30 1022.9 0 17.0 25.6 37.3 97.6 87.5 299.4
08/05 03:50 8.8 83 7.23 6.1 22 28 1023 0 16.9 25.5 37.1 97.0 86.8 297.2
08/05 03:40 8.9 82 7.19 6 19 22 1023 0 16.8 25.4 36.9 96.5 86.2 294.9
08/05 03:30 9 81 7.14 5.9 20 28 1023 0 16.7 25.3 36.6 95.8 85.4 292.2
08/05 03:20 9.2 80 7.15 5.9 20 24 1023.1 0 16.7 25.2 36.6 95.7 85.3 291.9
08/05 03:10 9.3 80 7.19 6 24 28 1023.1 0 16.8 25.3 36.7 96.0 85.7 293.4
08/05 03:00 9.5 78 7.1 5.9 24 30 1023.3 0 16.6 25.1 36.2 94.8 84.3 288.5
08/05 02:50 9.7 77 7.1 5.9 22 26 1023.3 0 16.6 25.0 36.2 94.5 84.1 287.8
08/05 02:40 9.9 75 7 5.7 24 30 1023.3 0 16.3 24.8 35.7 93.2 82.6 282.4
08/05 02:30 10.4 73 7.04 5.8 22 30 1023.6 0 16.4 24.7 35.6 93.1 82.6 282.5
08/05 02:20 10.6 72 7.03 5.8 19 20 1023.6 0 16.4 24.7 35.5 92.7 82.3 281.4
08/05 02:10 10.6 72 7.03 5.8 22 28 1023.6 0 16.4 24.7 35.5 92.7 82.3 281.4
08/05 02:00 10.6 71 6.93 5.6 24 33 1023.7 0 16.2 24.5 35.1 91.7 81.0 276.8
08/05 01:50 10.7 71 6.98 5.7 24 30 1023.7 0 16.3 24.6 35.2 92.1 81.5 278.7
08/05 01:40 10.7 71 6.98 5.7 24 30 1023.7 0 16.3 24.6 35.2 92.1 81.5 278.7
08/05 01:30 10.7 70 6.88 5.5 22 28 1024.1 0 16.0 24.4 34.9 91.1 80.2 274.3
08/05 01:20 10.7 69 6.78 5.3 20 24 1023.9 0 15.8 24.2 34.5 90.0 78.9 269.7
08/05 01:10 10.9 69 6.86 5.4 22 26 1024.1 0 16.0 24.3 34.7 90.7 79.8 272.7
08/05 01:00 10.9 68 6.77 5.2 24 33 1024.4 0 15.8 24.2 34.4 89.7 78.6 268.7
08/05 00:50 11 67 6.71 5.1 24 26 1024.4 0 15.7 24.1 34.1 89.0 77.7 265.6
08/05 00:40 11 66 6.61 4.9 24 30 1024.4 0 15.5 23.9 33.7 88.0 76.5 261.1
08/05 00:20 11.1 66 6.65 5 22 26 1024.5 0 15.5 24.0 33.8 88.3 76.9 262.6
08/05 00:10 11 66 6.61 4.9 22 26 1024.4 0 15.5 23.9 33.7 88.0 76.5 261.1
08/05 00:00 11 66 6.61 4.9 20 30 1024.5 0 15.5 23.9 33.7 88.0 76.5 261.1
07/05 23:50 10.9 65 6.47 4.6 20 24 1024.5 0 15.2 23.7 33.2 86.6 74.8 255.2
07/05 23:40 10.9 65 6.47 4.6 22 26 1024.5 0 15.2 23.7 33.2 86.6 74.8 255.2
07/05 23:30 10.9 65 6.47 4.6 24 32 1024.8 0 15.2 23.7 33.2 86.7 74.8 255.2
07/05 23:20 10.6 66 6.44 4.5 22 26 1024.9 0 15.1 23.8 33.2 86.7 74.7 254.9
07/05 23:10 10.9 65 6.47 4.6 22 26 1024.8 0 15.2 23.7 33.2 86.7 74.8 255.2
07/05 23:00 10.8 66 6.52 4.7 20 28 1024.9 0 15.3 23.8 33.5 87.3 75.5 257.8
07/05 22:50 10.8 66 6.52 4.7 19 24 1025 0 15.3 23.8 33.5 87.3 75.5 257.8
07/05 22:40 10.8 66 6.52 4.7 20 24 1025 0 15.3 23.8 33.5 87.3 75.5 257.8
07/05 22:30 10.7 65 6.39 4.4 20 28 1025 0 15.0 23.7 33.0 86.1 74.0 252.3
07/05 22:20 10.5 65 6.31 4.2 19 24 1025.1 0 14.8 23.6 32.8 85.5 73.1 249.4
07/05 22:10 10.5 65 6.31 4.2 20 24 1025.2 0 14.8 23.6 32.8 85.5 73.2 249.4
07/05 22:00 10.5 64 6.21 4 19 28 1025.1 0 14.6 23.4 32.4 84.4 71.9 244.9
07/05 21:50 10.4 63 6.07 3.7 20 24 1025.1 0 14.3 23.3 31.9 83.1 70.2 239.0
07/05 21:40 10.5 62 6.01 3.5 19 20 1025 0 14.2 23.1 31.6 82.4 69.3 236.0
07/05 21:30 10.5 62 6.01 3.5 19 24 1024.9 0 14.2 23.1 31.6 82.4 69.3 236.0
07/05 21:20 10.5 62 6.01 3.5 17 19 1025 0 14.2 23.1 31.6 82.4 69.3 236.0
07/05 21:10 10.4 62 5.98 3.4 19 20 1025 0 14.1 23.1 31.5 82.2 69.0 235.0
07/05 21:00 10.3 63 6.03 3.6 19 24 1025 0 14.2 23.2 31.8 82.8 69.8 237.5
07/05 20:50 10.1 64 6.05 3.6 17 19 1025.1 0 14.3 23.3 31.9 83.2 70.2 239.0
07/05 20:40 9.7 65 5.99 3.4 17 20 1025 0 14.2 23.3 31.9 83.0 69.8 237.5
07/05 20:30 9.5 65 5.92 3.3 17 22 1025 0 14.0 23.2 31.7 82.5 69.1 235.0
07/05 20:20 9.1 66 5.86 3.1 13 15 1024.8 0 13.9 23.2 31.6 82.3 68.6 233.4
07/05 20:10 9.1 66 5.86 3.1 13 15 1024.6 0 13.9 23.2 31.6 82.2 68.6 233.4
07/05 20:00 9.2 67 5.98 3.4 13 17 1024.8 0 14.2 23.4 32.0 83.4 70.1 238.5
07/05 19:50 9.2 67 5.98 3.4 13 15 1024.8 0 14.2 23.4 32.0 83.4 70.1 238.5

Last Refresh: 08-May-2026 12:10:13

Bureau of Meteorology